sensor_id;sensor_type;location;lat;lon;timestamp;P1;durP1;ratioP1;P2;durP2;ratioP2
21825;SDS011;11075;47.944;11.776;2023-04-06T00:01:07;10.13;;;7.17;;
21825;SDS011;11075;47.944;11.776;2023-04-06T00:03:34;12.20;;;6.80;;
21825;SDS011;11075;47.944;11.776;2023-04-06T00:06:03;12.07;;;6.30;;
21825;SDS011;11075;47.944;11.776;2023-04-06T00:08:30;9.43;;;6.37;;
21825;SDS011;11075;47.944;11.776;2023-04-06T00:10:57;14.77;;;7.30;;
21825;SDS011;11075;47.944;11.776;2023-04-06T00:13:23;12.47;;;6.93;;
21825;SDS011;11075;47.944;11.776;2023-04-06T00:15:50;11.30;;;6.90;;
21825;SDS011;11075;47.944;11.776;2023-04-06T00:18:18;12.47;;;6.90;;
21825;SDS011;11075;47.944;11.776;2023-04-06T00:20:45;10.87;;;7.03;;
21825;SDS011;11075;47.944;11.776;2023-04-06T00:23:13;11.90;;;7.33;;
21825;SDS011;11075;47.944;11.776;2023-04-06T00:25:39;17.00;;;7.43;;
21825;SDS011;11075;47.944;11.776;2023-04-06T00:28:06;11.20;;;7.57;;
21825;SDS011;11075;47.944;11.776;2023-04-06T00:30:34;16.13;;;7.50;;
21825;SDS011;11075;47.944;11.776;2023-04-06T00:33:01;15.77;;;7.47;;
21825;SDS011;11075;47.944;11.776;2023-04-06T00:35:28;12.10;;;7.40;;
21825;SDS011;11075;47.944;11.776;2023-04-06T00:37:55;11.70;;;7.57;;
21825;SDS011;11075;47.944;11.776;2023-04-06T00:40:23;15.87;;;8.90;;
21825;SDS011;11075;47.944;11.776;2023-04-06T00:42:50;10.63;;;6.87;;
21825;SDS011;11075;47.944;11.776;2023-04-06T00:45:17;12.97;;;7.67;;
21825;SDS011;11075;47.944;11.776;2023-04-06T00:47:43;12.67;;;8.07;;
21825;SDS011;11075;47.944;11.776;2023-04-06T00:50:11;11.73;;;7.53;;
21825;SDS011;11075;47.944;11.776;2023-04-06T00:52:38;12.33;;;7.93;;
21825;SDS011;11075;47.944;11.776;2023-04-06T00:55:07;12.93;;;8.10;;
21825;SDS011;11075;47.944;11.776;2023-04-06T00:57:39;12.70;;;8.13;;
21825;SDS011;11075;47.944;11.776;2023-04-06T01:00:07;13.97;;;8.10;;
21825;SDS011;11075;47.944;11.776;2023-04-06T01:02:34;9.73;;;6.73;;
21825;SDS011;11075;47.944;11.776;2023-04-06T01:05:02;12.10;;;6.93;;
21825;SDS011;11075;47.944;11.776;2023-04-06T01:07:37;10.13;;;7.07;;
21825;SDS011;11075;47.944;11.776;2023-04-06T01:10:22;11.37;;;6.80;;
21825;SDS011;11075;47.944;11.776;2023-04-06T01:13:01;11.60;;;7.60;;
21825;SDS011;11075;47.944;11.776;2023-04-06T01:15:58;10.50;;;6.97;;
21825;SDS011;11075;47.944;11.776;2023-04-06T01:19:09;11.53;;;6.43;;
21825;SDS011;11075;47.944;11.776;2023-04-06T01:21:41;13.77;;;7.90;;
21825;SDS011;11075;47.944;11.776;2023-04-06T01:24:34;11.87;;;8.40;;
21825;SDS011;11075;47.944;11.776;2023-04-06T01:27:08;12.73;;;7.47;;
21825;SDS011;11075;47.944;11.776;2023-04-06T01:29:48;31.60;;;14.30;;
21825;SDS011;11075;47.944;11.776;2023-04-06T01:32:26;15.57;;;9.03;;
21825;SDS011;11075;47.944;11.776;2023-04-06T01:34:53;19.90;;;8.37;;
21825;SDS011;11075;47.944;11.776;2023-04-06T01:37:21;20.53;;;8.87;;
21825;SDS011;11075;47.944;11.776;2023-04-06T01:39:52;13.20;;;7.97;;
21825;SDS011;11075;47.944;11.776;2023-04-06T01:42:34;13.63;;;7.37;;
21825;SDS011;11075;47.944;11.776;2023-04-06T01:45:01;15.07;;;7.93;;
21825;SDS011;11075;47.944;11.776;2023-04-06T01:47:28;11.83;;;7.33;;
21825;SDS011;11075;47.944;11.776;2023-04-06T01:49:55;14.13;;;7.40;;
21825;SDS011;11075;47.944;11.776;2023-04-06T01:52:23;12.83;;;6.57;;
21825;SDS011;11075;47.944;11.776;2023-04-06T01:54:52;11.03;;;7.13;;
21825;SDS011;11075;47.944;11.776;2023-04-06T01:57:34;12.13;;;7.37;;
21825;SDS011;11075;47.944;11.776;2023-04-06T02:00:12;12.67;;;7.30;;
21825;SDS011;11075;47.944;11.776;2023-04-06T02:02:42;13.77;;;7.43;;
21825;SDS011;11075;47.944;11.776;2023-04-06T02:05:16;12.73;;;6.57;;
21825;SDS011;11075;47.944;11.776;2023-04-06T02:07:43;10.30;;;6.70;;
21825;SDS011;11075;47.944;11.776;2023-04-06T02:10:13;13.17;;;7.20;;
21825;SDS011;11075;47.944;11.776;2023-04-06T02:12:41;10.47;;;6.73;;
21825;SDS011;11075;47.944;11.776;2023-04-06T02:15:12;14.83;;;7.23;;
21825;SDS011;11075;47.944;11.776;2023-04-06T02:17:41;10.47;;;6.10;;
21825;SDS011;11075;47.944;11.776;2023-04-06T02:20:09;8.80;;;6.43;;
21825;SDS011;11075;47.944;11.776;2023-04-06T02:22:36;11.10;;;6.53;;
21825;SDS011;11075;47.944;11.776;2023-04-06T02:25:04;12.07;;;6.77;;
21825;SDS011;11075;47.944;11.776;2023-04-06T02:27:32;11.50;;;7.13;;
21825;SDS011;11075;47.944;11.776;2023-04-06T02:29:59;12.50;;;7.60;;
21825;SDS011;11075;47.944;11.776;2023-04-06T02:32:26;10.53;;;6.97;;
21825;SDS011;11075;47.944;11.776;2023-04-06T02:34:54;11.90;;;7.07;;
21825;SDS011;11075;47.944;11.776;2023-04-06T02:37:21;10.90;;;6.53;;
21825;SDS011;11075;47.944;11.776;2023-04-06T02:39:51;15.23;;;7.50;;
21825;SDS011;11075;47.944;11.776;2023-04-06T02:42:18;12.23;;;7.57;;
21825;SDS011;11075;47.944;11.776;2023-04-06T02:44:47;11.20;;;6.87;;
21825;SDS011;11075;47.944;11.776;2023-04-06T02:47:16;11.57;;;7.07;;
21825;SDS011;11075;47.944;11.776;2023-04-06T02:49:46;16.67;;;8.03;;
21825;SDS011;11075;47.944;11.776;2023-04-06T02:52:15;11.57;;;7.10;;
21825;SDS011;11075;47.944;11.776;2023-04-06T02:54:44;9.37;;;6.50;;
21825;SDS011;11075;47.944;11.776;2023-04-06T02:57:11;12.37;;;7.77;;
21825;SDS011;11075;47.944;11.776;2023-04-06T02:59:42;10.80;;;7.40;;
21825;SDS011;11075;47.944;11.776;2023-04-06T03:02:18;11.37;;;7.27;;
21825;SDS011;11075;47.944;11.776;2023-04-06T03:04:45;13.80;;;6.90;;
21825;SDS011;11075;47.944;11.776;2023-04-06T03:07:26;10.50;;;6.90;;
21825;SDS011;11075;47.944;11.776;2023-04-06T03:09:54;11.97;;;7.10;;
21825;SDS011;11075;47.944;11.776;2023-04-06T03:12:21;10.47;;;6.77;;
21825;SDS011;11075;47.944;11.776;2023-04-06T03:15:11;12.20;;;7.20;;
21825;SDS011;11075;47.944;11.776;2023-04-06T03:17:42;12.57;;;6.67;;
21825;SDS011;11075;47.944;11.776;2023-04-06T03:20:18;9.63;;;7.03;;
21825;SDS011;11075;47.944;11.776;2023-04-06T03:22:45;11.40;;;6.67;;
21825;SDS011;11075;47.944;11.776;2023-04-06T03:25:15;13.57;;;7.07;;
21825;SDS011;11075;47.944;11.776;2023-04-06T03:27:43;12.60;;;7.67;;
21825;SDS011;11075;47.944;11.776;2023-04-06T03:30:13;13.67;;;7.97;;
21825;SDS011;11075;47.944;11.776;2023-04-06T03:32:42;10.17;;;7.13;;
21825;SDS011;11075;47.944;11.776;2023-04-06T03:35:10;11.83;;;7.67;;
21825;SDS011;11075;47.944;11.776;2023-04-06T03:37:37;10.97;;;6.90;;
21825;SDS011;11075;47.944;11.776;2023-04-06T03:40:05;17.17;;;7.30;;
21825;SDS011;11075;47.944;11.776;2023-04-06T03:42:32;13.27;;;7.73;;
21825;SDS011;11075;47.944;11.776;2023-04-06T03:45:05;15.50;;;7.37;;
21825;SDS011;11075;47.944;11.776;2023-04-06T03:47:33;10.17;;;6.87;;
21825;SDS011;11075;47.944;11.776;2023-04-06T03:50:03;11.20;;;7.03;;
21825;SDS011;11075;47.944;11.776;2023-04-06T03:52:34;9.70;;;6.37;;
21825;SDS011;11075;47.944;11.776;2023-04-06T03:55:02;12.33;;;7.10;;
21825;SDS011;11075;47.944;11.776;2023-04-06T03:57:29;15.00;;;7.70;;
21825;SDS011;11075;47.944;11.776;2023-04-06T03:59:56;14.20;;;7.37;;
21825;SDS011;11075;47.944;11.776;2023-04-06T04:02:25;13.30;;;8.33;;
21825;SDS011;11075;47.944;11.776;2023-04-06T04:04:52;17.17;;;8.23;;
21825;SDS011;11075;47.944;11.776;2023-04-06T04:07:20;13.27;;;7.77;;
21825;SDS011;11075;47.944;11.776;2023-04-06T04:09:47;11.93;;;7.50;;
21825;SDS011;11075;47.944;11.776;2023-04-06T04:12:14;13.93;;;8.43;;
21825;SDS011;11075;47.944;11.776;2023-04-06T04:14:43;16.03;;;7.60;;
21825;SDS011;11075;47.944;11.776;2023-04-06T04:17:10;13.63;;;7.90;;
21825;SDS011;11075;47.944;11.776;2023-04-06T04:19:37;15.00;;;7.83;;
21825;SDS011;11075;47.944;11.776;2023-04-06T04:22:05;12.03;;;7.43;;
21825;SDS011;11075;47.944;11.776;2023-04-06T04:24:36;13.70;;;8.40;;
21825;SDS011;11075;47.944;11.776;2023-04-06T04:27:04;12.87;;;7.47;;
21825;SDS011;11075;47.944;11.776;2023-04-06T04:29:32;12.90;;;7.50;;
21825;SDS011;11075;47.944;11.776;2023-04-06T04:32:03;16.07;;;7.67;;
21825;SDS011;11075;47.944;11.776;2023-04-06T04:34:32;15.90;;;8.10;;
21825;SDS011;11075;47.944;11.776;2023-04-06T04:37:00;15.43;;;8.47;;
21825;SDS011;11075;47.944;11.776;2023-04-06T04:39:41;11.67;;;7.20;;
21825;SDS011;11075;47.944;11.776;2023-04-06T04:42:08;15.00;;;8.03;;
21825;SDS011;11075;47.944;11.776;2023-04-06T04:44:41;14.67;;;7.80;;
21825;SDS011;11075;47.944;11.776;2023-04-06T04:47:08;12.60;;;8.27;;
21825;SDS011;11075;47.944;11.776;2023-04-06T04:49:42;15.90;;;8.43;;
21825;SDS011;11075;47.944;11.776;2023-04-06T04:52:11;16.60;;;8.37;;
21825;SDS011;11075;47.944;11.776;2023-04-06T04:54:50;14.87;;;7.87;;
21825;SDS011;11075;47.944;11.776;2023-04-06T04:57:23;12.50;;;7.70;;
21825;SDS011;11075;47.944;11.776;2023-04-06T04:59:50;18.67;;;9.03;;
21825;SDS011;11075;47.944;11.776;2023-04-06T05:02:18;16.47;;;8.37;;
21825;SDS011;11075;47.944;11.776;2023-04-06T05:05:08;13.70;;;8.47;;
21825;SDS011;11075;47.944;11.776;2023-04-06T05:07:37;14.47;;;8.23;;
21825;SDS011;11075;47.944;11.776;2023-04-06T05:10:06;13.83;;;8.00;;
21825;SDS011;11075;47.944;11.776;2023-04-06T05:12:40;16.57;;;9.33;;
21825;SDS011;11075;47.944;11.776;2023-04-06T05:15:09;17.03;;;8.30;;
21825;SDS011;11075;47.944;11.776;2023-04-06T05:17:37;16.80;;;7.73;;
21825;SDS011;11075;47.944;11.776;2023-04-06T05:20:06;12.93;;;7.73;;
21825;SDS011;11075;47.944;11.776;2023-04-06T05:22:42;13.97;;;8.13;;
21825;SDS011;11075;47.944;11.776;2023-04-06T05:25:09;13.47;;;7.80;;
21825;SDS011;11075;47.944;11.776;2023-04-06T05:27:38;14.23;;;8.00;;
21825;SDS011;11075;47.944;11.776;2023-04-06T05:30:15;14.50;;;8.37;;
21825;SDS011;11075;47.944;11.776;2023-04-06T05:32:45;16.20;;;8.60;;
21825;SDS011;11075;47.944;11.776;2023-04-06T05:35:13;15.10;;;8.23;;
21825;SDS011;11075;47.944;11.776;2023-04-06T05:37:43;13.00;;;7.97;;
21825;SDS011;11075;47.944;11.776;2023-04-06T05:40:11;14.60;;;8.97;;
21825;SDS011;11075;47.944;11.776;2023-04-06T05:42:42;13.13;;;8.43;;
21825;SDS011;11075;47.944;11.776;2023-04-06T05:45:10;13.83;;;9.00;;
21825;SDS011;11075;47.944;11.776;2023-04-06T05:47:46;14.80;;;9.27;;
21825;SDS011;11075;47.944;11.776;2023-04-06T05:50:21;11.97;;;7.60;;
21825;SDS011;11075;47.944;11.776;2023-04-06T05:52:49;15.33;;;8.50;;
21825;SDS011;11075;47.944;11.776;2023-04-06T05:55:19;14.73;;;7.87;;
21825;SDS011;11075;47.944;11.776;2023-04-06T05:57:52;11.43;;;7.53;;
21825;SDS011;11075;47.944;11.776;2023-04-06T06:00:20;14.03;;;8.23;;
21825;SDS011;11075;47.944;11.776;2023-04-06T06:02:58;10.53;;;7.90;;
21825;SDS011;11075;47.944;11.776;2023-04-06T06:05:28;9.80;;;6.80;;
21825;SDS011;11075;47.944;11.776;2023-04-06T06:08:00;14.73;;;7.80;;
21825;SDS011;11075;47.944;11.776;2023-04-06T06:10:29;12.10;;;8.10;;
21825;SDS011;11075;47.944;11.776;2023-04-06T06:12:56;10.43;;;7.17;;
21825;SDS011;11075;47.944;11.776;2023-04-06T06:15:23;12.20;;;7.80;;
21825;SDS011;11075;47.944;11.776;2023-04-06T06:17:51;11.07;;;7.63;;
21825;SDS011;11075;47.944;11.776;2023-04-06T06:20:18;11.30;;;7.97;;
21825;SDS011;11075;47.944;11.776;2023-04-06T06:22:46;10.80;;;7.57;;
21825;SDS011;11075;47.944;11.776;2023-04-06T06:25:17;11.57;;;7.30;;
21825;SDS011;11075;47.944;11.776;2023-04-06T06:27:46;11.67;;;7.30;;
21825;SDS011;11075;47.944;11.776;2023-04-06T06:30:15;13.73;;;7.10;;
21825;SDS011;11075;47.944;11.776;2023-04-06T06:32:43;10.97;;;7.83;;
21825;SDS011;11075;47.944;11.776;2023-04-06T06:35:11;11.20;;;7.47;;
21825;SDS011;11075;47.944;11.776;2023-04-06T06:37:38;10.07;;;7.03;;
21825;SDS011;11075;47.944;11.776;2023-04-06T06:40:09;10.93;;;7.03;;
21825;SDS011;11075;47.944;11.776;2023-04-06T06:42:41;10.67;;;7.27;;
21825;SDS011;11075;47.944;11.776;2023-04-06T06:45:18;12.77;;;8.70;;
21825;SDS011;11075;47.944;11.776;2023-04-06T06:47:46;9.13;;;6.97;;
21825;SDS011;11075;47.944;11.776;2023-04-06T06:50:13;9.23;;;7.57;;
21825;SDS011;11075;47.944;11.776;2023-04-06T06:52:41;11.60;;;7.63;;
21825;SDS011;11075;47.944;11.776;2023-04-06T06:55:09;16.53;;;12.83;;
21825;SDS011;11075;47.944;11.776;2023-04-06T06:57:38;12.13;;;8.90;;
21825;SDS011;11075;47.944;11.776;2023-04-06T07:00:06;11.30;;;7.73;;
21825;SDS011;11075;47.944;11.776;2023-04-06T07:02:35;10.17;;;7.07;;
21825;SDS011;11075;47.944;11.776;2023-04-06T07:05:02;9.40;;;6.83;;
21825;SDS011;11075;47.944;11.776;2023-04-06T07:07:49;8.53;;;6.57;;
21825;SDS011;11075;47.944;11.776;2023-04-06T07:10:17;10.07;;;7.20;;
21825;SDS011;11075;47.944;11.776;2023-04-06T07:12:44;9.30;;;7.00;;
21825;SDS011;11075;47.944;11.776;2023-04-06T07:15:11;14.53;;;7.27;;
21825;SDS011;11075;47.944;11.776;2023-04-06T07:17:38;13.00;;;7.07;;
21825;SDS011;11075;47.944;11.776;2023-04-06T07:20:08;11.83;;;6.77;;
21825;SDS011;11075;47.944;11.776;2023-04-06T07:22:35;13.30;;;7.17;;
21825;SDS011;11075;47.944;11.776;2023-04-06T07:25:04;12.33;;;7.10;;
21825;SDS011;11075;47.944;11.776;2023-04-06T07:27:32;11.90;;;6.87;;
21825;SDS011;11075;47.944;11.776;2023-04-06T07:29:59;8.73;;;5.90;;
21825;SDS011;11075;47.944;11.776;2023-04-06T07:32:27;9.27;;;6.23;;
21825;SDS011;11075;47.944;11.776;2023-04-06T07:34:54;9.43;;;6.53;;
21825;SDS011;11075;47.944;11.776;2023-04-06T07:37:21;17.00;;;7.00;;
21825;SDS011;11075;47.944;11.776;2023-04-06T07:39:48;10.60;;;5.97;;
21825;SDS011;11075;47.944;11.776;2023-04-06T07:42:16;9.37;;;5.83;;
21825;SDS011;11075;47.944;11.776;2023-04-06T07:44:43;8.30;;;6.03;;
21825;SDS011;11075;47.944;11.776;2023-04-06T07:47:10;9.67;;;6.60;;
21825;SDS011;11075;47.944;11.776;2023-04-06T07:49:38;9.80;;;6.40;;
21825;SDS011;11075;47.944;11.776;2023-04-06T07:52:05;10.50;;;6.67;;
21825;SDS011;11075;47.944;11.776;2023-04-06T07:54:33;7.60;;;6.10;;
21825;SDS011;11075;47.944;11.776;2023-04-06T07:56:59;10.30;;;6.07;;
21825;SDS011;11075;47.944;11.776;2023-04-06T07:59:27;8.47;;;6.43;;
21825;SDS011;11075;47.944;11.776;2023-04-06T08:01:54;12.93;;;6.57;;
21825;SDS011;11075;47.944;11.776;2023-04-06T08:04:21;14.03;;;6.80;;
21825;SDS011;11075;47.944;11.776;2023-04-06T08:06:48;13.00;;;7.63;;
21825;SDS011;11075;47.944;11.776;2023-04-06T08:09:15;12.47;;;8.00;;
21825;SDS011;11075;47.944;11.776;2023-04-06T08:11:42;11.80;;;8.30;;
21825;SDS011;11075;47.944;11.776;2023-04-06T08:14:11;9.60;;;6.23;;
21825;SDS011;11075;47.944;11.776;2023-04-06T08:16:37;11.73;;;7.23;;
21825;SDS011;11075;47.944;11.776;2023-04-06T08:19:04;10.03;;;6.90;;
21825;SDS011;11075;47.944;11.776;2023-04-06T08:21:31;9.17;;;6.67;;
21825;SDS011;11075;47.944;11.776;2023-04-06T08:23:59;11.47;;;7.17;;
21825;SDS011;11075;47.944;11.776;2023-04-06T08:26:27;9.30;;;6.40;;
21825;SDS011;11075;47.944;11.776;2023-04-06T08:28:54;8.95;;;6.70;;
21825;SDS011;11075;47.944;11.776;2023-04-06T08:31:22;9.77;;;6.55;;
21825;SDS011;11075;47.944;11.776;2023-04-06T08:33:49;8.40;;;6.18;;
21825;SDS011;11075;47.944;11.776;2023-04-06T08:36:16;9.93;;;7.32;;
21825;SDS011;11075;47.944;11.776;2023-04-06T08:38:46;9.88;;;6.10;;
21825;SDS011;11075;47.944;11.776;2023-04-06T08:41:15;9.52;;;6.63;;
21825;SDS011;11075;47.944;11.776;2023-04-06T08:43:49;10.70;;;6.63;;
21825;SDS011;11075;47.944;11.776;2023-04-06T08:46:25;7.53;;;6.38;;
21825;SDS011;11075;47.944;11.776;2023-04-06T08:48:57;9.20;;;6.38;;
21825;SDS011;11075;47.944;11.776;2023-04-06T08:51:25;7.85;;;5.63;;
21825;SDS011;11075;47.944;11.776;2023-04-06T08:53:54;7.75;;;5.68;;
21825;SDS011;11075;47.944;11.776;2023-04-06T08:56:24;6.72;;;5.30;;
21825;SDS011;11075;47.944;11.776;2023-04-06T08:58:53;11.37;;;6.20;;
21825;SDS011;11075;47.944;11.776;2023-04-06T09:01:23;8.87;;;6.20;;
21825;SDS011;11075;47.944;11.776;2023-04-06T09:03:57;7.55;;;5.80;;
21825;SDS011;11075;47.944;11.776;2023-04-06T09:06:27;9.18;;;6.25;;
21825;SDS011;11075;47.944;11.776;2023-04-06T09:08:54;9.70;;;6.05;;
21825;SDS011;11075;47.944;11.776;2023-04-06T09:11:22;10.30;;;6.65;;
21825;SDS011;11075;47.944;11.776;2023-04-06T09:16:17;7.97;;;6.00;;
21825;SDS011;11075;47.944;11.776;2023-04-06T09:18:45;10.23;;;6.03;;
21825;SDS011;11075;47.944;11.776;2023-04-06T09:21:16;8.32;;;6.00;;
21825;SDS011;11075;47.944;11.776;2023-04-06T09:23:44;7.35;;;6.25;;
21825;SDS011;11075;47.944;11.776;2023-04-06T09:26:13;10.40;;;6.40;;
21825;SDS011;11075;47.944;11.776;2023-04-06T09:31:16;9.20;;;6.60;;
21825;SDS011;11075;47.944;11.776;2023-04-06T09:33:49;10.68;;;6.88;;
21825;SDS011;11075;47.944;11.776;2023-04-06T09:36:16;7.38;;;6.40;;
21825;SDS011;11075;47.944;11.776;2023-04-06T09:38:59;9.57;;;6.80;;
21825;SDS011;11075;47.944;11.776;2023-04-06T09:41:29;9.48;;;6.75;;
21825;SDS011;11075;47.944;11.776;2023-04-06T09:44:06;8.32;;;6.60;;
21825;SDS011;11075;47.944;11.776;2023-04-06T09:46:36;8.13;;;6.65;;
21825;SDS011;11075;47.944;11.776;2023-04-06T09:49:24;9.60;;;6.88;;
21825;SDS011;11075;47.944;11.776;2023-04-06T09:51:59;9.95;;;7.72;;
21825;SDS011;11075;47.944;11.776;2023-04-06T09:54:29;10.85;;;6.93;;
21825;SDS011;11075;47.944;11.776;2023-04-06T10:02:16;7.47;;;6.25;;
21825;SDS011;11075;47.944;11.776;2023-04-06T10:07:57;9.18;;;6.70;;
21825;SDS011;11075;47.944;11.776;2023-04-06T10:10:29;8.77;;;6.65;;
21825;SDS011;11075;47.944;11.776;2023-04-06T10:12:57;9.40;;;6.88;;
21825;SDS011;11075;47.944;11.776;2023-04-06T10:15:29;9.20;;;7.30;;
21825;SDS011;11075;47.944;11.776;2023-04-06T10:18:00;8.32;;;6.97;;
21825;SDS011;11075;47.944;11.776;2023-04-06T10:25:29;9.98;;;6.60;;
21825;SDS011;11075;47.944;11.776;2023-04-06T10:27:59;11.60;;;7.33;;
21825;SDS011;11075;47.944;11.776;2023-04-06T10:30:41;8.30;;;6.33;;
21825;SDS011;11075;47.944;11.776;2023-04-06T10:33:19;7.37;;;5.53;;
21825;SDS011;11075;47.944;11.776;2023-04-06T10:35:46;12.15;;;7.25;;
21825;SDS011;11075;47.944;11.776;2023-04-06T10:38:13;10.55;;;6.22;;
21825;SDS011;11075;47.944;11.776;2023-04-06T10:40:41;9.32;;;6.30;;
21825;SDS011;11075;47.944;11.776;2023-04-06T10:43:12;10.18;;;6.97;;
21825;SDS011;11075;47.944;11.776;2023-04-06T10:45:40;7.75;;;6.05;;
21825;SDS011;11075;47.944;11.776;2023-04-06T10:48:16;11.02;;;6.43;;
21825;SDS011;11075;47.944;11.776;2023-04-06T10:50:46;6.55;;;5.55;;
21825;SDS011;11075;47.944;11.776;2023-04-06T10:53:25;7.10;;;6.28;;
21825;SDS011;11075;47.944;11.776;2023-04-06T10:55:55;8.00;;;5.78;;
21825;SDS011;11075;47.944;11.776;2023-04-06T10:58:24;8.50;;;5.75;;
21825;SDS011;11075;47.944;11.776;2023-04-06T11:00:52;8.07;;;5.80;;
21825;SDS011;11075;47.944;11.776;2023-04-06T11:03:21;9.15;;;5.50;;
21825;SDS011;11075;47.944;11.776;2023-04-06T11:05:48;7.88;;;6.00;;
21825;SDS011;11075;47.944;11.776;2023-04-06T11:08:25;8.63;;;5.70;;
21825;SDS011;11075;47.944;11.776;2023-04-06T11:11:09;8.45;;;5.72;;
21825;SDS011;11075;47.944;11.776;2023-04-06T11:13:45;10.45;;;6.13;;
21825;SDS011;11075;47.944;11.776;2023-04-06T11:16:16;6.25;;;5.63;;
21825;SDS011;11075;47.944;11.776;2023-04-06T11:18:54;7.22;;;5.78;;
21825;SDS011;11075;47.944;11.776;2023-04-06T11:24:19;7.88;;;5.63;;
21825;SDS011;11075;47.944;11.776;2023-04-06T11:29:23;6.28;;;5.35;;
21825;SDS011;11075;47.944;11.776;2023-04-06T11:31:59;7.88;;;4.70;;
21825;SDS011;11075;47.944;11.776;2023-04-06T11:34:27;5.82;;;4.88;;
21825;SDS011;11075;47.944;11.776;2023-04-06T11:37:00;5.35;;;4.63;;
21825;SDS011;11075;47.944;11.776;2023-04-06T11:39:46;7.78;;;4.78;;
21825;SDS011;11075;47.944;11.776;2023-04-06T11:42:23;7.95;;;6.00;;
21825;SDS011;11075;47.944;11.776;2023-04-06T11:44:53;6.38;;;5.70;;
21825;SDS011;11075;47.944;11.776;2023-04-06T11:47:27;7.18;;;5.45;;
21825;SDS011;11075;47.944;11.776;2023-04-06T11:49:55;6.57;;;5.63;;
21825;SDS011;11075;47.944;11.776;2023-04-06T11:52:22;8.18;;;5.63;;
21825;SDS011;11075;47.944;11.776;2023-04-06T11:54:51;8.45;;;5.95;;
21825;SDS011;11075;47.944;11.776;2023-04-06T11:57:19;5.97;;;5.38;;
21825;SDS011;11075;47.944;11.776;2023-04-06T11:59:49;9.35;;;5.43;;
21825;SDS011;11075;47.944;11.776;2023-04-06T12:02:16;6.93;;;5.22;;
21825;SDS011;11075;47.944;11.776;2023-04-06T12:04:45;7.13;;;5.07;;
21825;SDS011;11075;47.944;11.776;2023-04-06T12:07:12;5.47;;;4.45;;
21825;SDS011;11075;47.944;11.776;2023-04-06T12:09:41;7.72;;;5.15;;
21825;SDS011;11075;47.944;11.776;2023-04-06T12:12:07;6.90;;;4.63;;
21825;SDS011;11075;47.944;11.776;2023-04-06T12:14:34;8.10;;;4.72;;
21825;SDS011;11075;47.944;11.776;2023-04-06T12:17:01;5.22;;;4.55;;
21825;SDS011;11075;47.944;11.776;2023-04-06T12:19:30;5.45;;;4.15;;
21825;SDS011;11075;47.944;11.776;2023-04-06T12:21:58;5.70;;;5.00;;
21825;SDS011;11075;47.944;11.776;2023-04-06T12:24:25;6.93;;;4.53;;
21825;SDS011;11075;47.944;11.776;2023-04-06T12:26:54;8.20;;;5.20;;
21825;SDS011;11075;47.944;11.776;2023-04-06T12:29:35;5.43;;;4.60;;
21825;SDS011;11075;47.944;11.776;2023-04-06T12:32:02;7.97;;;5.18;;
21825;SDS011;11075;47.944;11.776;2023-04-06T12:34:30;8.70;;;5.00;;
21825;SDS011;11075;47.944;11.776;2023-04-06T12:36:56;6.20;;;4.60;;
21825;SDS011;11075;47.944;11.776;2023-04-06T12:39:24;5.65;;;4.68;;
21825;SDS011;11075;47.944;11.776;2023-04-06T12:41:52;4.15;;;3.50;;
21825;SDS011;11075;47.944;11.776;2023-04-06T12:44:19;5.15;;;4.10;;
21825;SDS011;11075;47.944;11.776;2023-04-06T12:46:46;4.15;;;3.75;;
21825;SDS011;11075;47.944;11.776;2023-04-06T12:49:13;4.30;;;3.90;;
21825;SDS011;11075;47.944;11.776;2023-04-06T12:51:40;5.43;;;4.15;;
21825;SDS011;11075;47.944;11.776;2023-04-06T12:54:07;7.20;;;3.70;;
21825;SDS011;11075;47.944;11.776;2023-04-06T12:56:34;6.45;;;3.70;;
21825;SDS011;11075;47.944;11.776;2023-04-06T12:59:01;8.57;;;4.50;;
21825;SDS011;11075;47.944;11.776;2023-04-06T13:01:28;8.05;;;5.15;;
21825;SDS011;11075;47.944;11.776;2023-04-06T13:03:56;5.95;;;4.57;;
21825;SDS011;11075;47.944;11.776;2023-04-06T13:06:25;4.82;;;4.32;;
21825;SDS011;11075;47.944;11.776;2023-04-06T13:08:56;5.15;;;4.45;;
21825;SDS011;11075;47.944;11.776;2023-04-06T13:11:23;5.65;;;4.38;;
21825;SDS011;11075;47.944;11.776;2023-04-06T13:13:54;9.48;;;5.18;;
21825;SDS011;11075;47.944;11.776;2023-04-06T13:16:21;6.47;;;4.75;;
21825;SDS011;11075;47.944;11.776;2023-04-06T13:18:48;5.90;;;4.60;;
21825;SDS011;11075;47.944;11.776;2023-04-06T13:21:16;5.75;;;4.40;;
21825;SDS011;11075;47.944;11.776;2023-04-06T13:23:44;5.00;;;4.50;;
21825;SDS011;11075;47.944;11.776;2023-04-06T13:26:11;4.88;;;3.92;;
21825;SDS011;11075;47.944;11.776;2023-04-06T13:28:40;5.30;;;4.18;;
21825;SDS011;11075;47.944;11.776;2023-04-06T13:31:08;6.45;;;4.38;;
21825;SDS011;11075;47.944;11.776;2023-04-06T13:33:36;6.00;;;4.00;;
21825;SDS011;11075;47.944;11.776;2023-04-06T13:36:03;6.25;;;4.13;;
21825;SDS011;11075;47.944;11.776;2023-04-06T13:38:30;5.63;;;4.20;;
21825;SDS011;11075;47.944;11.776;2023-04-06T13:40:57;7.70;;;4.53;;
21825;SDS011;11075;47.944;11.776;2023-04-06T13:43:24;5.45;;;4.07;;
21825;SDS011;11075;47.944;11.776;2023-04-06T13:45:53;4.70;;;4.20;;
21825;SDS011;11075;47.944;11.776;2023-04-06T13:48:21;5.80;;;4.55;;
21825;SDS011;11075;47.944;11.776;2023-04-06T13:50:49;5.05;;;3.50;;
21825;SDS011;11075;47.944;11.776;2023-04-06T13:53:16;5.13;;;4.28;;
21825;SDS011;11075;47.944;11.776;2023-04-06T13:55:43;4.85;;;4.20;;
21825;SDS011;11075;47.944;11.776;2023-04-06T13:58:11;5.10;;;4.25;;
21825;SDS011;11075;47.944;11.776;2023-04-06T14:00:38;4.68;;;4.05;;
21825;SDS011;11075;47.944;11.776;2023-04-06T14:03:05;6.53;;;4.90;;
21825;SDS011;11075;47.944;11.776;2023-04-06T14:05:32;5.07;;;4.35;;
21825;SDS011;11075;47.944;11.776;2023-04-06T14:07:59;5.22;;;4.13;;
21825;SDS011;11075;47.944;11.776;2023-04-06T14:10:28;5.13;;;4.22;;
21825;SDS011;11075;47.944;11.776;2023-04-06T14:12:56;5.50;;;4.15;;
21825;SDS011;11075;47.944;11.776;2023-04-06T14:15:24;5.95;;;4.40;;
21825;SDS011;11075;47.944;11.776;2023-04-06T14:17:51;4.88;;;4.00;;
21825;SDS011;11075;47.944;11.776;2023-04-06T14:20:18;6.18;;;4.70;;
21825;SDS011;11075;47.944;11.776;2023-04-06T14:22:46;4.68;;;4.10;;
21825;SDS011;11075;47.944;11.776;2023-04-06T14:25:13;7.00;;;4.15;;
21825;SDS011;11075;47.944;11.776;2023-04-06T14:27:40;5.75;;;4.32;;
21825;SDS011;11075;47.944;11.776;2023-04-06T14:30:07;8.43;;;4.55;;
21825;SDS011;11075;47.944;11.776;2023-04-06T14:32:35;6.80;;;4.47;;
21825;SDS011;11075;47.944;11.776;2023-04-06T14:35:06;4.95;;;4.28;;
21825;SDS011;11075;47.944;11.776;2023-04-06T14:37:33;4.47;;;4.03;;
21825;SDS011;11075;47.944;11.776;2023-04-06T14:40:01;4.50;;;3.92;;
21825;SDS011;11075;47.944;11.776;2023-04-06T14:42:29;4.22;;;3.83;;
21825;SDS011;11075;47.944;11.776;2023-04-06T14:44:57;5.22;;;4.13;;
21825;SDS011;11075;47.944;11.776;2023-04-06T14:47:24;4.90;;;4.07;;
21825;SDS011;11075;47.944;11.776;2023-04-06T14:49:51;5.20;;;3.97;;
21825;SDS011;11075;47.944;11.776;2023-04-06T14:52:19;4.72;;;3.95;;
21825;SDS011;11075;47.944;11.776;2023-04-06T14:54:46;4.10;;;3.60;;
21825;SDS011;11075;47.944;11.776;2023-04-06T14:57:13;5.73;;;3.80;;
21825;SDS011;11075;47.944;11.776;2023-04-06T14:59:40;6.72;;;3.90;;
21825;SDS011;11075;47.944;11.776;2023-04-06T15:02:07;7.25;;;4.57;;
21825;SDS011;11075;47.944;11.776;2023-04-06T15:04:34;6.45;;;4.35;;
21825;SDS011;11075;47.944;11.776;2023-04-06T15:07:03;5.40;;;4.10;;